sensor_id;sensor_type;location;lat;lon;timestamp;pressure;altitude;pressure_sealevel;temperature;humidity
72144;BME280;60025;52.492;13.368;2022-08-01T00:02:09;100908.50;;;22.08;57.27
72144;BME280;60025;52.492;13.368;2022-08-01T00:04:34;100902.19;;;22.01;57.52
72144;BME280;60025;52.492;13.368;2022-08-01T00:07:00;100895.91;;;21.94;57.72
72144;BME280;60025;52.492;13.368;2022-08-01T00:09:25;100911.78;;;21.97;57.85
72144;BME280;60025;52.492;13.368;2022-08-01T00:11:51;100908.28;;;22.09;58.12
72144;BME280;60025;52.492;13.368;2022-08-01T00:14:16;100903.91;;;22.08;57.86
72144;BME280;60025;52.492;13.368;2022-08-01T00:16:41;100918.59;;;22.21;57.34
72144;BME280;60025;52.492;13.368;2022-08-01T00:19:07;100908.13;;;22.18;58.25
72144;BME280;60025;52.492;13.368;2022-08-01T00:21:32;100904.47;;;21.97;59.12
72144;BME280;60025;52.492;13.368;2022-08-01T00:23:57;100908.28;;;21.74;60.13
72144;BME280;60025;52.492;13.368;2022-08-01T00:26:23;100902.22;;;21.72;60.04
72144;BME280;60025;52.492;13.368;2022-08-01T00:28:48;100899.41;;;21.37;61.72
72144;BME280;60025;52.492;13.368;2022-08-01T00:31:13;100898.16;;;21.90;59.77
72144;BME280;60025;52.492;13.368;2022-08-01T00:33:39;100904.97;;;21.51;61.82
72144;BME280;60025;52.492;13.368;2022-08-01T00:36:04;100906.81;;;21.50;61.95
72144;BME280;60025;52.492;13.368;2022-08-01T00:38:29;100907.75;;;21.57;61.82
72144;BME280;60025;52.492;13.368;2022-08-01T00:40:56;100904.81;;;21.31;63.26
72144;BME280;60025;52.492;13.368;2022-08-01T00:43:21;100913.50;;;21.48;63.39
72144;BME280;60025;52.492;13.368;2022-08-01T00:45:47;100905.72;;;21.45;63.70
72144;BME280;60025;52.492;13.368;2022-08-01T00:48:12;100906.38;;;21.47;63.46
72144;BME280;60025;52.492;13.368;2022-08-01T00:50:38;100899.06;;;20.97;66.04
72144;BME280;60025;52.492;13.368;2022-08-01T00:53:03;100896.22;;;21.27;64.88
72144;BME280;60025;52.492;13.368;2022-08-01T00:55:29;100904.34;;;21.05;66.31
72144;BME280;60025;52.492;13.368;2022-08-01T00:57:56;100894.91;;;21.23;65.47
72144;BME280;60025;52.492;13.368;2022-08-01T01:00:24;100901.13;;;21.17;66.40
72144;BME280;60025;52.492;13.368;2022-08-01T01:02:50;100894.28;;;20.99;66.80
72144;BME280;60025;52.492;13.368;2022-08-01T01:05:15;100889.00;;;21.13;66.36
72144;BME280;60025;52.492;13.368;2022-08-01T01:07:50;100884.03;;;21.16;66.54
72144;BME280;60025;52.492;13.368;2022-08-01T01:10:25;100886.53;;;21.18;66.72
72144;BME280;60025;52.492;13.368;2022-08-01T01:13:07;100893.19;;;21.15;67.08
72144;BME280;60025;52.492;13.368;2022-08-01T01:15:41;100892.34;;;21.15;66.87
72144;BME280;60025;52.492;13.368;2022-08-01T01:18:13;100893.47;;;21.49;65.24
72144;BME280;60025;52.492;13.368;2022-08-01T01:29:21;100880.19;;;21.54;65.31
72144;BME280;60025;52.492;13.368;2022-08-01T01:32:04;100884.94;;;21.80;64.14
72144;BME280;60025;52.492;13.368;2022-08-01T01:34:34;100880.75;;;21.78;64.26
72144;BME280;60025;52.492;13.368;2022-08-01T01:37:02;100871.09;;;21.68;64.85
72144;BME280;60025;52.492;13.368;2022-08-01T01:39:30;100870.34;;;21.81;64.60
72144;BME280;60025;52.492;13.368;2022-08-01T01:41:57;100875.69;;;21.68;64.69
72144;BME280;60025;52.492;13.368;2022-08-01T01:44:25;100876.66;;;21.60;65.04
72144;BME280;60025;52.492;13.368;2022-08-01T01:46:53;100874.91;;;21.74;64.21
72144;BME280;60025;52.492;13.368;2022-08-01T01:49:23;100874.84;;;21.67;64.79
72144;BME280;60025;52.492;13.368;2022-08-01T01:51:51;100874.84;;;21.67;64.99
72144;BME280;60025;52.492;13.368;2022-08-01T01:54:19;100876.94;;;21.72;64.36
72144;BME280;60025;52.492;13.368;2022-08-01T01:56:47;100878.16;;;21.63;65.31
72144;BME280;60025;52.492;13.368;2022-08-01T01:59:18;100872.97;;;21.39;65.86
72144;BME280;60025;52.492;13.368;2022-08-01T02:01:46;100880.59;;;21.29;66.30
72144;BME280;60025;52.492;13.368;2022-08-01T02:04:13;100871.41;;;21.30;66.57
72144;BME280;60025;52.492;13.368;2022-08-01T02:06:39;100877.81;;;21.22;66.78
72144;BME280;60025;52.492;13.368;2022-08-01T02:09:06;100877.00;;;21.22;66.68
72144;BME280;60025;52.492;13.368;2022-08-01T02:11:34;100882.91;;;21.32;66.39
72144;BME280;60025;52.492;13.368;2022-08-01T02:14:02;100884.53;;;21.27;66.66
72144;BME280;60025;52.492;13.368;2022-08-01T02:16:34;100885.13;;;21.22;67.02
72144;BME280;60025;52.492;13.368;2022-08-01T02:19:01;100875.84;;;21.10;67.93
72144;BME280;60025;52.492;13.368;2022-08-01T02:21:30;100882.53;;;21.14;67.42
72144;BME280;60025;52.492;13.368;2022-08-01T02:24:03;100878.78;;;21.15;67.80
72144;BME280;60025;52.492;13.368;2022-08-01T02:26:34;100873.31;;;21.08;68.10
72144;BME280;60025;52.492;13.368;2022-08-01T02:29:06;100875.13;;;21.01;68.35
72144;BME280;60025;52.492;13.368;2022-08-01T02:31:35;100884.59;;;21.12;67.77
72144;BME280;60025;52.492;13.368;2022-08-01T02:34:04;100877.44;;;21.04;68.38
72144;BME280;60025;52.492;13.368;2022-08-01T02:36:33;100883.31;;;20.86;69.73
72144;BME280;60025;52.492;13.368;2022-08-01T02:39:03;100885.13;;;21.00;68.44
72144;BME280;60025;52.492;13.368;2022-08-01T02:41:35;100875.06;;;20.94;69.41
72144;BME280;60025;52.492;13.368;2022-08-01T02:44:05;100877.13;;;20.92;69.05
72144;BME280;60025;52.492;13.368;2022-08-01T02:46:46;100878.66;;;21.01;69.06
72144;BME280;60025;52.492;13.368;2022-08-01T02:49:14;100870.81;;;21.06;68.82
72144;BME280;60025;52.492;13.368;2022-08-01T02:51:43;100873.94;;;21.10;68.98
72144;BME280;60025;52.492;13.368;2022-08-01T02:54:11;100876.84;;;21.09;69.20
72144;BME280;60025;52.492;13.368;2022-08-01T02:56:37;100873.66;;;20.98;69.31
72144;BME280;60025;52.492;13.368;2022-08-01T02:59:07;100875.69;;;20.96;69.57
72144;BME280;60025;52.492;13.368;2022-08-01T03:01:35;100873.53;;;21.06;69.38
72144;BME280;60025;52.492;13.368;2022-08-01T03:04:03;100873.91;;;21.03;69.42
72144;BME280;60025;52.492;13.368;2022-08-01T03:06:31;100867.56;;;20.96;69.37
72144;BME280;60025;52.492;13.368;2022-08-01T03:08:58;100875.06;;;20.94;69.81
72144;BME280;60025;52.492;13.368;2022-08-01T03:11:25;100879.47;;;20.95;69.88
72144;BME280;60025;52.492;13.368;2022-08-01T03:13:53;100879.38;;;20.88;70.01
72144;BME280;60025;52.492;13.368;2022-08-01T03:16:22;100880.88;;;20.91;69.78
72144;BME280;60025;52.492;13.368;2022-08-01T03:18:51;100874.09;;;20.80;70.55
72144;BME280;60025;52.492;13.368;2022-08-01T03:21:19;100876.22;;;20.85;70.24
72144;BME280;60025;52.492;13.368;2022-08-01T03:23:47;100883.69;;;20.83;70.37
72144;BME280;60025;52.492;13.368;2022-08-01T03:26:14;100881.47;;;20.86;70.23
72144;BME280;60025;52.492;13.368;2022-08-01T03:28:41;100896.22;;;20.84;70.85
72144;BME280;60025;52.492;13.368;2022-08-01T03:31:06;100888.34;;;20.89;70.59
72144;BME280;60025;52.492;13.368;2022-08-01T03:33:32;100892.03;;;20.81;70.74
72144;BME280;60025;52.492;13.368;2022-08-01T03:36:00;100895.31;;;20.77;70.99
72144;BME280;60025;52.492;13.368;2022-08-01T03:38:27;100886.72;;;20.73;71.35
72144;BME280;60025;52.492;13.368;2022-08-01T03:40:59;100893.19;;;20.94;70.53
72144;BME280;60025;52.492;13.368;2022-08-01T03:43:38;100890.41;;;20.87;70.49
72144;BME280;60025;52.492;13.368;2022-08-01T03:46:09;100898.06;;;20.83;70.90
72144;BME280;60025;52.492;13.368;2022-08-01T03:48:40;100899.94;;;20.83;70.88
72144;BME280;60025;52.492;13.368;2022-08-01T03:51:08;100901.84;;;21.04;70.13
72144;BME280;60025;52.492;13.368;2022-08-01T03:53:36;100895.50;;;20.97;70.35
72144;BME280;60025;52.492;13.368;2022-08-01T03:56:03;100894.00;;;21.16;69.32
72144;BME280;60025;52.492;13.368;2022-08-01T03:58:29;100904.75;;;21.02;70.31
72144;BME280;60025;52.492;13.368;2022-08-01T04:00:56;100903.88;;;21.02;70.28
72144;BME280;60025;52.492;13.368;2022-08-01T04:03:22;100906.66;;;21.09;70.07
72144;BME280;60025;52.492;13.368;2022-08-01T04:05:48;100891.81;;;21.26;69.95
72144;BME280;60025;52.492;13.368;2022-08-01T04:08:13;100900.28;;;21.16;70.00
72144;BME280;60025;52.492;13.368;2022-08-01T04:10:39;100898.31;;;21.03;70.76
72144;BME280;60025;52.492;13.368;2022-08-01T04:13:04;100899.97;;;21.04;70.77
72144;BME280;60025;52.492;13.368;2022-08-01T04:15:30;100900.28;;;21.16;70.36
72144;BME280;60025;52.492;13.368;2022-08-01T04:17:55;100905.25;;;21.13;70.67
72144;BME280;60025;52.492;13.368;2022-08-01T04:20:20;100903.34;;;21.06;70.78
72144;BME280;60025;52.492;13.368;2022-08-01T04:22:46;100903.16;;;21.15;70.47
72144;BME280;60025;52.492;13.368;2022-08-01T04:25:34;100903.19;;;21.36;69.88
72144;BME280;60025;52.492;13.368;2022-08-01T04:28:01;100907.75;;;21.36;69.91
72144;BME280;60025;52.492;13.368;2022-08-01T04:30:31;100905.75;;;21.23;70.70
72144;BME280;60025;52.492;13.368;2022-08-01T04:33:00;100908.78;;;21.13;71.29
72144;BME280;60025;52.492;13.368;2022-08-01T04:35:27;100913.06;;;21.22;71.37
72144;BME280;60025;52.492;13.368;2022-08-01T04:37:53;100918.38;;;21.37;70.65
72144;BME280;60025;52.492;13.368;2022-08-01T04:40:19;100909.53;;;21.22;71.21
72144;BME280;60025;52.492;13.368;2022-08-01T04:42:48;100912.88;;;21.24;71.23
72144;BME280;60025;52.492;13.368;2022-08-01T04:45:14;100917.81;;;21.20;71.55
72144;BME280;60025;52.492;13.368;2022-08-01T04:47:40;100930.06;;;20.95;72.66
72144;BME280;60025;52.492;13.368;2022-08-01T04:50:08;100926.94;;;21.13;72.04
72144;BME280;60025;52.492;13.368;2022-08-01T04:52:36;100921.00;;;21.02;72.64
72144;BME280;60025;52.492;13.368;2022-08-01T04:55:03;100925.50;;;20.95;72.96
72144;BME280;60025;52.492;13.368;2022-08-01T04:57:29;100930.28;;;20.93;73.25
72144;BME280;60025;52.492;13.368;2022-08-01T04:59:54;100935.97;;;20.98;72.72
72144;BME280;60025;52.492;13.368;2022-08-01T05:02:22;100923.31;;;21.05;72.70
72144;BME280;60025;52.492;13.368;2022-08-01T05:04:47;100925.41;;;21.03;72.63
72144;BME280;60025;52.492;13.368;2022-08-01T05:07:13;100926.63;;;21.01;72.96
72144;BME280;60025;52.492;13.368;2022-08-01T05:09:39;100921.63;;;20.83;74.46
72144;BME280;60025;52.492;13.368;2022-08-01T05:12:10;100930.81;;;21.03;73.14
72144;BME280;60025;52.492;13.368;2022-08-01T05:14:36;100937.00;;;21.19;73.10
72144;BME280;60025;52.492;13.368;2022-08-01T05:17:03;100932.81;;;21.16;72.67
72144;BME280;60025;52.492;13.368;2022-08-01T05:19:36;100926.81;;;20.99;73.97
72144;BME280;60025;52.492;13.368;2022-08-01T05:22:04;100933.13;;;21.06;73.27
72144;BME280;60025;52.492;13.368;2022-08-01T05:24:31;100931.22;;;21.22;72.71
72144;BME280;60025;52.492;13.368;2022-08-01T05:26:57;100936.75;;;20.92;74.39
72144;BME280;60025;52.492;13.368;2022-08-01T05:29:23;100932.47;;;20.83;75.02
72144;BME280;60025;52.492;13.368;2022-08-01T05:31:49;100935.34;;;21.18;73.82
72144;BME280;60025;52.492;13.368;2022-08-01T05:34:14;100936.63;;;21.22;73.56
72144;BME280;60025;52.492;13.368;2022-08-01T05:36:40;100932.34;;;21.13;74.21
72144;BME280;60025;52.492;13.368;2022-08-01T05:39:05;100935.69;;;21.15;74.10
72144;BME280;60025;52.492;13.368;2022-08-01T05:41:30;100931.72;;;21.11;74.29
72144;BME280;60025;52.492;13.368;2022-08-01T05:43:56;100937.44;;;21.44;72.90
72144;BME280;60025;52.492;13.368;2022-08-01T05:46:21;100936.66;;;21.29;73.49
72144;BME280;60025;52.492;13.368;2022-08-01T05:48:47;100935.53;;;21.38;72.88
72144;BME280;60025;52.492;13.368;2022-08-01T05:51:12;100938.03;;;21.39;72.96
72144;BME280;60025;52.492;13.368;2022-08-01T05:53:37;100948.09;;;21.46;72.90
72144;BME280;60025;52.492;13.368;2022-08-01T05:56:03;100946.09;;;21.54;72.49
72144;BME280;60025;52.492;13.368;2022-08-01T05:58:29;100950.94;;;21.59;72.31
72144;BME280;60025;52.492;13.368;2022-08-01T06:00:54;100949.47;;;21.56;72.57
72144;BME280;60025;52.492;13.368;2022-08-01T06:03:20;100954.94;;;21.63;72.40
72144;BME280;60025;52.492;13.368;2022-08-01T06:05:45;100953.84;;;21.57;72.50
72144;BME280;60025;52.492;13.368;2022-08-01T06:08:10;100956.63;;;21.64;72.44
72144;BME280;60025;52.492;13.368;2022-08-01T06:10:36;100948.09;;;21.46;72.90
72144;BME280;60025;52.492;13.368;2022-08-01T06:13:02;100945.63;;;21.51;73.12
72144;BME280;60025;52.492;13.368;2022-08-01T06:15:29;100948.47;;;21.43;73.37
72144;BME280;60025;52.492;13.368;2022-08-01T06:17:55;100956.66;;;21.28;73.69
72144;BME280;60025;52.492;13.368;2022-08-01T06:20:20;100958.81;;;21.32;73.42
72144;BME280;60025;52.492;13.368;2022-08-01T06:22:45;100959.47;;;21.13;75.37
72144;BME280;60025;52.492;13.368;2022-08-01T06:25:11;100962.47;;;21.24;75.28
72144;BME280;60025;52.492;13.368;2022-08-01T06:27:36;100959.38;;;21.06;75.99
72144;BME280;60025;52.492;13.368;2022-08-01T06:30:03;100971.78;;;20.94;76.19
72144;BME280;60025;52.492;13.368;2022-08-01T06:32:28;100972.69;;;21.01;76.11
72144;BME280;60025;52.492;13.368;2022-08-01T06:34:54;100966.97;;;21.11;75.54
72144;BME280;60025;52.492;13.368;2022-08-01T06:37:20;100966.03;;;21.03;75.82
72144;BME280;60025;52.492;13.368;2022-08-01T06:39:46;100966.13;;;21.53;73.18
72144;BME280;60025;52.492;13.368;2022-08-01T06:42:11;100969.16;;;21.22;74.71
72144;BME280;60025;52.492;13.368;2022-08-01T06:44:37;100972.38;;;21.11;75.57
72144;BME280;60025;52.492;13.368;2022-08-01T06:47:02;100970.28;;;21.13;75.82
72144;BME280;60025;52.492;13.368;2022-08-01T06:49:28;100972.50;;;21.24;75.81
72144;BME280;60025;52.492;13.368;2022-08-01T06:51:53;100976.44;;;21.43;75.75
72144;BME280;60025;52.492;13.368;2022-08-01T06:54:19;100966.19;;;21.88;73.90
72144;BME280;60025;52.492;13.368;2022-08-01T06:56:44;100971.38;;;21.83;73.91
72144;BME280;60025;52.492;13.368;2022-08-01T06:59:09;100969.69;;;21.54;74.70
72144;BME280;60025;52.492;13.368;2022-08-01T07:01:35;100975.19;;;21.46;74.36
72144;BME280;60025;52.492;13.368;2022-08-01T07:04:00;100972.38;;;21.32;74.09
72144;BME280;60025;52.492;13.368;2022-08-01T07:06:25;100970.88;;;21.30;73.58
72144;BME280;60025;52.492;13.368;2022-08-01T07:08:52;100971.47;;;21.03;74.55
72144;BME280;60025;52.492;13.368;2022-08-01T07:11:18;100969.59;;;21.04;74.39
72144;BME280;60025;52.492;13.368;2022-08-01T07:13:43;100974.28;;;20.95;74.67
72144;BME280;60025;52.492;13.368;2022-08-01T07:16:11;100969.78;;;21.02;74.41
72144;BME280;60025;52.492;13.368;2022-08-01T07:18:36;100975.84;;;21.04;74.58
72144;BME280;60025;52.492;13.368;2022-08-01T07:21:01;100969.78;;;21.02;75.52
72144;BME280;60025;52.492;13.368;2022-08-01T07:23:27;100972.09;;;21.05;75.46
72144;BME280;60025;52.492;13.368;2022-08-01T07:25:52;100978.34;;;21.06;75.92
72144;BME280;60025;52.492;13.368;2022-08-01T07:28:18;100981.63;;;21.01;75.92
72144;BME280;60025;52.492;13.368;2022-08-01T07:30:43;100987.78;;;20.74;76.61
72144;BME280;60025;52.492;13.368;2022-08-01T07:33:09;100983.34;;;20.87;75.77
72144;BME280;60025;52.492;13.368;2022-08-01T07:35:35;100985.66;;;21.05;74.76
72144;BME280;60025;52.492;13.368;2022-08-01T07:38:03;100990.19;;;21.41;73.44
72144;BME280;60025;52.492;13.368;2022-08-01T07:40:28;100992.19;;;21.33;73.17
72144;BME280;60025;52.492;13.368;2022-08-01T07:42:54;100989.88;;;22.01;70.08
72144;BME280;60025;52.492;13.368;2022-08-01T07:45:19;100994.91;;;21.54;70.07
72144;BME280;60025;52.492;13.368;2022-08-01T07:47:46;100996.88;;;21.89;69.77
72144;BME280;60025;52.492;13.368;2022-08-01T07:50:12;100993.81;;;21.99;69.36
72144;BME280;60025;52.492;13.368;2022-08-01T07:52:38;100992.88;;;21.85;68.80
72144;BME280;60025;52.492;13.368;2022-08-01T07:55:03;100999.69;;;21.74;68.87
72144;BME280;60025;52.492;13.368;2022-08-01T07:57:29;101005.03;;;21.24;71.59
72144;BME280;60025;52.492;13.368;2022-08-01T07:59:54;101006.63;;;21.55;69.57
72144;BME280;60025;52.492;13.368;2022-08-01T08:02:20;101006.66;;;21.40;70.07
72144;BME280;60025;52.492;13.368;2022-08-01T08:04:45;101010.44;;;21.24;70.86
72144;BME280;60025;52.492;13.368;2022-08-01T08:07:11;101009.16;;;21.20;71.45
72144;BME280;60025;52.492;13.368;2022-08-01T08:09:39;101011.34;;;21.31;70.63
72144;BME280;60025;52.492;13.368;2022-08-01T08:12:05;101004.91;;;21.11;71.29
72144;BME280;60025;52.492;13.368;2022-08-01T08:14:30;101007.84;;;21.16;71.43
72144;BME280;60025;52.492;13.368;2022-08-01T08:16:56;101016.25;;;21.21;71.10
72144;BME280;60025;52.492;13.368;2022-08-01T08:19:21;101019.28;;;21.33;70.12
72144;BME280;60025;52.492;13.368;2022-08-01T08:21:46;101019.09;;;21.34;69.64
72144;BME280;60025;52.492;13.368;2022-08-01T08:24:12;101021.16;;;21.11;70.48
72144;BME280;60025;52.492;13.368;2022-08-01T08:26:56;101029.91;;;21.49;68.85
72144;BME280;60025;52.492;13.368;2022-08-01T08:29:22;101023.81;;;21.26;69.69
72144;BME280;60025;52.492;13.368;2022-08-01T08:31:48;101025.94;;;21.30;68.59
72144;BME280;60025;52.492;13.368;2022-08-01T08:34:14;101024.94;;;21.53;68.12
72144;BME280;60025;52.492;13.368;2022-08-01T08:36:40;101031.03;;;21.55;68.49
72144;BME280;60025;52.492;13.368;2022-08-01T08:39:05;101022.44;;;22.01;66.51
72144;BME280;60025;52.492;13.368;2022-08-01T08:41:35;101032.75;;;22.13;66.17
72144;BME280;60025;52.492;13.368;2022-08-01T08:44:01;101027.19;;;22.21;65.71
72144;BME280;60025;52.492;13.368;2022-08-01T08:46:27;101035.53;;;22.19;65.74
72144;BME280;60025;52.492;13.368;2022-08-01T08:48:54;101037.25;;;22.27;65.44
72144;BME280;60025;52.492;13.368;2022-08-01T08:51:20;101035.75;;;21.96;66.37
72144;BME280;60025;52.492;13.368;2022-08-01T08:56:14;101032.22;;;22.24;65.66
72144;BME280;60025;52.492;13.368;2022-08-01T08:58:43;101028.69;;;22.30;65.28
72144;BME280;60025;52.492;13.368;2022-08-01T09:01:09;101035.28;;;22.42;64.85
72144;BME280;60025;52.492;13.368;2022-08-01T09:03:36;101042.06;;;21.75;65.85
72144;BME280;60025;52.492;13.368;2022-08-01T09:06:04;101042.00;;;22.18;64.95
72144;BME280;60025;52.492;13.368;2022-08-01T09:08:29;101042.59;;;22.14;64.09
72144;BME280;60025;52.492;13.368;2022-08-01T09:10:55;101037.69;;;22.31;62.92
72144;BME280;60025;52.492;13.368;2022-08-01T09:13:20;101047.81;;;22.15;62.88
72144;BME280;60025;52.492;13.368;2022-08-01T09:15:47;101044.94;;;21.95;64.15
72144;BME280;60025;52.492;13.368;2022-08-01T09:18:35;101044.31;;;22.21;63.41
72144;BME280;60025;52.492;13.368;2022-08-01T09:21:09;101052.97;;;21.82;64.90
72144;BME280;60025;52.492;13.368;2022-08-01T09:26:06;101059.25;;;22.10;64.17
72144;BME280;60025;52.492;13.368;2022-08-01T09:28:32;101061.47;;;22.00;64.80
72144;BME280;60025;52.492;13.368;2022-08-01T09:30:58;101065.53;;;22.11;64.34
72144;BME280;60025;52.492;13.368;2022-08-01T09:33:24;101066.00;;;22.43;63.79
72144;BME280;60025;52.492;13.368;2022-08-01T09:35:56;101060.72;;;22.70;62.49
72144;BME280;60025;52.492;13.368;2022-08-01T09:38:24;101062.00;;;22.81;61.79
72144;BME280;60025;52.492;13.368;2022-08-01T09:40:52;101064.81;;;22.94;62.09
72144;BME280;60025;52.492;13.368;2022-08-01T09:43:20;101071.91;;;22.88;62.30
72144;BME280;60025;52.492;13.368;2022-08-01T09:45:46;101073.53;;;22.83;62.17
72144;BME280;60025;52.492;13.368;2022-08-01T09:48:12;101078.59;;;22.51;63.29
72144;BME280;60025;52.492;13.368;2022-08-01T09:50:57;101078.81;;;21.99;64.89
72144;BME280;60025;52.492;13.368;2022-08-01T09:53:23;101079.97;;;21.90;65.51
72144;BME280;60025;52.492;13.368;2022-08-01T09:55:49;101085.31;;;21.83;65.43
72144;BME280;60025;52.492;13.368;2022-08-01T09:58:17;101087.38;;;22.03;65.09
72144;BME280;60025;52.492;13.368;2022-08-01T10:00:57;101085.41;;;21.90;64.93
72144;BME280;60025;52.492;13.368;2022-08-01T10:03:25;101092.25;;;21.86;65.73
72144;BME280;60025;52.492;13.368;2022-08-01T10:05:52;101088.81;;;21.99;65.33
72144;BME280;60025;52.492;13.368;2022-08-01T10:08:22;101090.78;;;22.12;64.88
72144;BME280;60025;52.492;13.368;2022-08-01T10:11:10;101093.47;;;22.61;63.14
72144;BME280;60025;52.492;13.368;2022-08-01T10:13:35;101100.00;;;22.67;62.96
72144;BME280;60025;52.492;13.368;2022-08-01T10:16:01;101098.31;;;22.66;62.82
72144;BME280;60025;52.492;13.368;2022-08-01T10:18:28;101104.88;;;22.78;62.50
72144;BME280;60025;52.492;13.368;2022-08-01T10:20:56;101097.13;;;22.75;61.77
72144;BME280;60025;52.492;13.368;2022-08-01T10:23:24;101100.56;;;22.91;61.01
72144;BME280;60025;52.492;13.368;2022-08-01T10:25:51;101103.13;;;22.64;61.64
72144;BME280;60025;52.492;13.368;2022-08-01T10:28:19;101112.66;;;22.25;63.18
72144;BME280;60025;52.492;13.368;2022-08-01T10:30:45;101110.28;;;22.22;63.71
72144;BME280;60025;52.492;13.368;2022-08-01T10:33:12;101104.16;;;22.13;64.12
72144;BME280;60025;52.492;13.368;2022-08-01T10:35:39;101116.31;;;22.39;63.40
72144;BME280;60025;52.492;13.368;2022-08-01T10:38:05;101104.75;;;22.58;62.46
72144;BME280;60025;52.492;13.368;2022-08-01T10:40:31;101112.84;;;22.52;63.15
72144;BME280;60025;52.492;13.368;2022-08-01T10:42:58;101110.94;;;22.46;63.45
72144;BME280;60025;52.492;13.368;2022-08-01T10:45:24;101107.19;;;22.47;63.21
72144;BME280;60025;52.492;13.368;2022-08-01T10:50:27;101113.28;;;22.84;62.65
72144;BME280;60025;52.492;13.368;2022-08-01T10:53:15;101112.88;;;22.87;62.30
72144;BME280;60025;52.492;13.368;2022-08-01T10:55:56;101112.91;;;22.93;62.43
72144;BME280;60025;52.492;13.368;2022-08-01T10:58:28;101111.06;;;23.01;61.77
72144;BME280;60025;52.492;13.368;2022-08-01T11:03:41;101110.97;;;23.22;61.18
72144;BME280;60025;52.492;13.368;2022-08-01T11:06:16;101117.31;;;23.43;60.75
72144;BME280;60025;52.492;13.368;2022-08-01T11:08:42;101118.34;;;23.35;60.45
72144;BME280;60025;52.492;13.368;2022-08-01T11:11:15;101127.31;;;22.94;61.52
72144;BME280;60025;52.492;13.368;2022-08-01T11:16:39;101136.09;;;23.31;60.08
72144;BME280;60025;52.492;13.368;2022-08-01T11:19:06;101124.66;;;23.07;59.98
72144;BME280;60025;52.492;13.368;2022-08-01T11:27:30;101134.56;;;22.45;62.37
72144;BME280;60025;52.492;13.368;2022-08-01T11:32:34;101135.38;;;22.24;63.16
72144;BME280;60025;52.492;13.368;2022-08-01T11:34:59;101145.78;;;22.20;63.88
72144;BME280;60025;52.492;13.368;2022-08-01T11:37:26;101150.78;;;22.17;65.00
72144;BME280;60025;52.492;13.368;2022-08-01T11:40:23;101154.25;;;22.10;65.79
72144;BME280;60025;52.492;13.368;2022-08-01T11:42:51;101155.03;;;21.83;66.81
72144;BME280;60025;52.492;13.368;2022-08-01T11:48:20;101169.25;;;22.28;66.92
72144;BME280;60025;52.492;13.368;2022-08-01T11:50:46;101163.66;;;22.08;66.82
72144;BME280;60025;52.492;13.368;2022-08-01T11:53:11;101163.44;;;22.53;65.16
72144;BME280;60025;52.492;13.368;2022-08-01T11:55:47;101158.63;;;22.83;64.10
72144;BME280;60025;52.492;13.368;2022-08-01T11:58:20;101169.16;;;22.65;63.27
72144;BME280;60025;52.492;13.368;2022-08-01T12:00:53;101165.31;;;22.52;63.09
72144;BME280;60025;52.492;13.368;2022-08-01T12:03:31;101166.22;;;22.66;62.88
72144;BME280;60025;52.492;13.368;2022-08-01T12:05:58;101169.59;;;22.97;61.89
72144;BME280;60025;52.492;13.368;2022-08-01T12:08:28;101163.31;;;23.31;60.89
72144;BME280;60025;52.492;13.368;2022-08-01T12:10:54;101168.53;;;23.33;60.40
72144;BME280;60025;52.492;13.368;2022-08-01T12:13:20;101162.06;;;23.40;60.61
72144;BME280;60025;52.492;13.368;2022-08-01T12:15:46;101161.97;;;23.14;60.86
72144;BME280;60025;52.492;13.368;2022-08-01T12:18:12;101164.88;;;23.60;59.92
72144;BME280;60025;52.492;13.368;2022-08-01T12:20:42;101163.91;;;23.26;59.96
72144;BME280;60025;52.492;13.368;2022-08-01T12:23:13;101160.88;;;23.50;59.53
72144;BME280;60025;52.492;13.368;2022-08-01T12:25:40;101158.03;;;23.85;58.37
72144;BME280;60025;52.492;13.368;2022-08-01T12:28:08;101162.63;;;23.84;58.13
72144;BME280;60025;52.492;13.368;2022-08-01T12:30:35;101170.25;;;24.15;57.49
72144;BME280;60025;52.492;13.368;2022-08-01T12:33:03;101166.47;;;24.10;57.06
72144;BME280;60025;52.492;13.368;2022-08-01T12:35:30;101160.75;;;23.85;57.84
72144;BME280;60025;52.492;13.368;2022-08-01T12:38:04;101159.97;;;23.97;57.17
72144;BME280;60025;52.492;13.368;2022-08-01T12:40:35;101168.47;;;23.74;57.65
72144;BME280;60025;52.492;13.368;2022-08-01T12:43:07;101165.19;;;23.99;57.20
72144;BME280;60025;52.492;13.368;2022-08-01T12:45:40;101158.91;;;23.92;57.05
72144;BME280;60025;52.492;13.368;2022-08-01T12:48:10;101154.56;;;24.31;56.59
72144;BME280;60025;52.492;13.368;2022-08-01T12:50:38;101154.94;;;24.14;56.09
72144;BME280;60025;52.492;13.368;2022-08-01T12:53:05;101173.19;;;24.34;55.92
72144;BME280;60025;52.492;13.368;2022-08-01T12:55:30;101159.78;;;24.12;56.15
72144;BME280;60025;52.492;13.368;2022-08-01T12:58:07;101154.75;;;24.03;55.93
72144;BME280;60025;52.492;13.368;2022-08-01T13:00:34;101156.19;;;24.12;56.50
72144;BME280;60025;52.492;13.368;2022-08-01T13:03:19;101151.81;;;24.11;56.37
72144;BME280;60025;52.492;13.368;2022-08-01T13:05:51;101150.94;;;23.90;57.19
72144;BME280;60025;52.492;13.368;2022-08-01T13:08:18;101153.38;;;23.72;57.41
72144;BME280;60025;52.492;13.368;2022-08-01T13:10:43;101147.53;;;23.13;59.26
72144;BME280;60025;52.492;13.368;2022-08-01T13:13:10;101154.50;;;23.29;59.26
72144;BME280;60025;52.492;13.368;2022-08-01T13:15:38;101155.31;;;23.23;59.54
72144;BME280;60025;52.492;13.368;2022-08-01T13:18:25;101153.16;;;23.11;60.15